Ride Results

GERZ @ Toongabbie (15-08-2009)
Ride distance: 100.0 km Elevator

Outcomes - GERZ @ Toongabbie (15-08-2009)
Division No. of Entries Retired / DNE Completed Withdrawn Ineligible V/O Percentage Completed
HW 7 - 4 - - 3 57.14%
MW 17 3 12 1 - 1 88.24%
LW 11 6 3 1 - 1 81.82%
JN 5 1 4 - - - 100.00%
Totals 40 10 23 2 - 5 82.50%
Results - GERZ @ Toongabbie (15-08-2009)
No. Rider Horse Place Time Leg Speeds Total
Km/Hr
H/R bpm
Heavyweight
81 Merv Fisher Wenway Eternity 1 5:54:00 21.2, 16.5, 12.4 16.95 36, 40, 46, 48 (Avg:44)
82 Jarrod Robinson Julian 2 6:04:00 19.5, 15.5, 13.7 16.48 33, 52, 46, 54 (Avg:50)
167 Bill Verspaandonk Tonki Dee Boo Frankly 3 (BC) 6:07:00 15.5, 17.3, 15.9 16.35 44, 50, 46, 49 (Avg:48)
5 Jenni Gardiner Colhaven Zaheera 4 7:43:00 14.2, 12.8, 11.1 12.96 36, 42, 45, 49 (Avg:45)
62 Leah Leishman Mt Tawonga Wishing Lame L2 0:00:00 17.0, 12.9 - 31, 44, 46 (Avg:45)
784 Ian Tytler Whyneemah Abu Heart Rate L2 0:00:00 12.2, 12.9 - 42, 44, 62 (Avg:53)
4 Jennifer Green Reym Havana Lame L1 0:00:00 19.5 - 37, 48 (Avg:48)
Middleweight
787 Shelley Cowan Parlour Mountain Pandora 1 6:07:00 17.2, 16.1, 15.1 16.35 30, 40, 45, 47 (Avg:44)
806 Stella Harbison Castlebar Kalahari 1 6:07:00 17.2, 16.1, 15.1 16.35 29, 46, 50, 47 (Avg:47)
13 Linda Tanian Castlebar Darthvader 1 6:07:00 17.2, 16.1, 15.1 16.35 32, 44, 51, 55 (Avg:50)
84 Kristie Taprell Kurrajong Concorde 1 (BC) 6:07:00 17.2, 16.1, 15.1 16.35 33, 36, 42, 44 (Avg:40)
160 Jo-Anne Francis Hansaar 5 6:31:00 17.1, 15.5, 12.3 15.35 42, 41, 47, 46 (Avg:44)
70 Fiona Passarin Coranderrk Edison 5 6:31:00 17.6, 15.1, 12.3 15.35 42, 45, 52, 54 (Avg:50)
788 Zoe Gardner Castlebar Cable 7 6:35:00 16.5, 15.5, 12.4 15.19 40, 40, 46, 39 (Avg:41)
53 Beverley Rayner-Mason Karumba Nariel 8 6:38:00 20.6, 14.9, 9.9 15.08 44, 48, 58, 54 (Avg:53)
173 Robyn Albers A'landell Kwaint 9 6:57:00 17.3, 14.9, 10.1 14.39 32, 44, 48, 44 (Avg:45)
126 Wendy Riha Castlebar Caro 9 6:57:00 16.5, 15.5, 10.1 14.39 34, 35, 47, 43 (Avg:41)
10 Jennie Armistead Khamsin 11 7:17:00 17.0, 12.9, 10.8 13.73 29, 44, 54, 46 (Avg:48)
168 Trish VanDonk Tonki Dee Boo Vincent 12 7:49:00 13.1, 13.0, 11.6 12.79 34, 44, 49, 49 (Avg:47)
133 Barry Sinclair Chipawood Tashi Retired/DNE L2 4:56:00 17.1, 15.3 16.22 38, 36, 49 (Avg:42)
2 Carole Bourke Warrawee Lazan Retired/DNE L2 5:54:00 13.8, 13.2 13.56 25, 44, 50 (Avg:47)
789 Patricia Mesiti Talika Shahn Retired/DNE L2 6:31:00 12.8, 11.7 12.28 45, 49, 57 (Avg:53)
79 Max Oakley Poesie de Ibn Shahn Lame L1 0:00:00 12.8 - 40, 41 (Avg:41)
80 Heather Saunders Willie Hackit Withdrawn L1 0:00:00 - - 36, 48 (Avg:48)
Lightweight
792 Elodie LeLabourier Castlebar Moonlight 1 (BC) 6:07:00 17.2, 16.1, 15.1 16.35 30, 34, 48, 42 (Avg:41)
22 Sarah McLaughlin Bremervale Promise 2 7:43:00 14.2, 12.9, 11.1 12.96 40, 40, 43, 45 (Avg:42)
23 Brittnee Smith Rowallan Nara 3 8:23:00 13.0, 11.5, 10.8 11.93 39, 39, 41, 43 (Avg:41)
144 Marie Gillett Radiums Rusty Retired/DNE L2 5:54:00 13.8, 13.2 13.56 40, 48, 52 (Avg:50)
85 Belinda Kolek Nasahn Rubinali Retired/DNE L2 6:16:00 12.8, 12.6 12.77 42, 44, 50 (Avg:47)
29 Sandra Feil Saracus El Shaddai Retired/DNE L2 6:32:00 13.0, 11.5 12.24 41, 48, 52 (Avg:50)
3 Caley Rees Michelle Mae Retired/DNE L2 6:32:00 13.0, 11.5 12.24 42, 50, 54 (Avg:52)
221 Susan Gill Fahsan Saradhan Retired/DNE L2 6:47:00 13.1, 10.7 11.79 33, 40, 49 (Avg:44)
183 Nicky Robinson Zharion Retired/DNE L2 6:47:00 13.1, 10.7 11.79 40, 50, 48 (Avg:49)
210 Fiona Hodges Elphyn Ranique Withdrawn L2 0:00:00 - - 28, 40, 35 (Avg:37)
91 Kim Noble Roheryn Park Khaleef Lame L1 0:00:00 17.9 - 31, 42 (Avg:42)
Junior
90 Samantha Noble Springridge Bungendore 1 6:04:00 17.9, 15.4, 15.9 16.48 27, 36, 40, 39 (Avg:38)
195 Nikita Verspaandonk Musica Presto 2 (BC) 6:07:00 15.5, 17.3, 15.9 16.35 40, 44, 45, 44 (Avg:44)
778 Phoebe Gardner Actress 3 6:35:00 16.5, 15.5, 12.4 15.19 30, 36, 40, 42 (Avg:39)
52 Nadine Harte Bellawongarah Sage 4 7:49:00 13.1, 13.0, 11.6 12.79 40, 40, 43, 46 (Avg:43)
192 Tabitha Verspaandonk Olive Springs Fortune Retired/DNE L2 6:06:00 13.1, 13.0 13.11 50, 50, 49 (Avg:49)